Time;durP1;ratioP1;P1;durP2;ratioP2;P2;SDS_P1;SDS_P2;PMS_P1;PMS_P2;Temp;Humidity;BMP_temperature;BMP_pressure;BME280_temperature;BME280_humidity;BME280_pressure;Samples;Min_cycle;Max_cycle;Signal;HPM_P1;HPM_P2
2021/12/09 00:01:09;;;;;;;9.43;2.42;;;8.80;58.80;;;;;;5027546;28;20457;-74
2021/12/09 00:03:39;;;;;;;11.27;2.88;;;8.80;58.90;;;;;;5027346;28;20038;-74
2021/12/09 00:06:07;;;;;;;9.70;2.70;;;8.80;58.80;;;;;;5026989;28;20053;-74
2021/12/09 00:08:37;;;;;;;6.97;2.50;;;8.80;58.80;;;;;;5026875;28;20388;-75
2021/12/09 00:11:05;;;;;;;11.35;2.65;;;8.80;58.80;;;;;;5026937;28;20041;-73
2021/12/09 00:13:31;;;;;;;9.75;3.70;;;8.80;58.80;;;;;;5025051;28;20036;-74
2021/12/09 00:15:58;;;;;;;8.63;2.33;;;8.80;58.80;;;;;;5026996;28;20123;-75
2021/12/09 00:18:24;;;;;;;15.05;3.45;;;8.80;58.80;;;;;;5026836;28;20353;-75
2021/12/09 00:20:51;;;;;;;8.90;2.72;;;8.80;58.80;;;;;;5026594;28;20026;-73
2021/12/09 00:23:17;;;;;;;8.48;2.63;;;8.80;58.80;;;;;;5026789;28;20034;-75
2021/12/09 00:25:43;;;;;;;8.82;2.70;;;8.80;58.80;;;;;;5026930;28;20516;-73
2021/12/09 00:28:10;;;;;;;11.95;3.25;;;8.70;58.60;;;;;;5026690;28;20056;-75
2021/12/09 00:30:37;;;;;;;8.57;3.15;;;8.80;58.80;;;;;;5027119;28;20029;-72
2021/12/09 00:33:05;;;;;;;11.68;4.45;;;8.80;58.70;;;;;;5026251;28;20383;-75
2021/12/09 00:35:43;;;;;;;8.27;2.80;;;8.70;58.50;;;;;;5025283;28;20567;-74
2021/12/09 00:38:18;;;;;;;10.90;2.28;;;8.80;58.70;;;;;;5026768;28;20029;-75
2021/12/09 00:40:44;;;;;;;9.93;2.38;;;8.70;58.50;;;;;;5025445;28;20112;-74
2021/12/09 00:43:11;;;;;;;5.90;2.45;;;8.80;58.70;;;;;;5025266;28;20390;-72
2021/12/09 00:45:37;;;;;;;13.27;2.90;;;8.70;58.50;;;;;;5026366;28;20056;-74
2021/12/09 00:48:03;;;;;;;11.60;2.75;;;8.80;58.70;;;;;;5027052;28;20122;-75
2021/12/09 00:50:29;;;;;;;11.27;2.97;;;8.80;58.60;;;;;;5025741;28;20456;-76
2021/12/09 00:52:55;;;;;;;10.27;2.47;;;8.70;58.50;;;;;;5025908;28;20033;-75
2021/12/09 00:55:21;;;;;;;8.63;2.55;;;8.70;58.50;;;;;;5026562;28;20485;-75
2021/12/09 00:57:47;;;;;;;10.57;2.28;;;8.70;58.50;;;;;;5026294;28;20033;-73
2021/12/09 01:00:20;;;;;;;9.00;3.33;;;8.70;58.50;;;;;;5026312;28;20134;-75
2021/12/09 01:02:46;;;;;;;8.27;2.40;;;8.70;58.50;;;;;;5024165;28;20057;-71
2021/12/09 01:05:13;;;;;;;8.20;2.70;;;8.70;58.50;;;;;;5026345;28;20079;-73
2021/12/09 01:07:41;;;;;;;11.23;2.78;;;8.70;58.50;;;;;;5026113;28;20469;-73
2021/12/09 01:10:10;;;;;;;6.13;3.17;;;8.70;58.50;;;;;;5026084;28;20037;-73
2021/12/09 01:12:36;;;;;;;10.88;2.25;;;8.70;58.60;;;;;;5025478;28;20038;-72
2021/12/09 01:15:04;;;;;;;8.73;2.65;;;8.70;58.60;;;;;;5026042;28;20071;-73
2021/12/09 01:17:30;;;;;;;7.57;2.08;;;8.60;58.40;;;;;;5026081;28;20063;-74
2021/12/09 01:19:57;;;;;;;10.52;3.25;;;8.70;58.60;;;;;;5008324;28;20026;-74
2021/12/09 01:22:30;;;;;;;9.93;2.70;;;8.70;58.60;;;;;;5025968;28;20026;-73
2021/12/09 01:24:56;;;;;;;7.22;2.40;;;8.60;58.50;;;;;;5026023;28;20056;-72
2021/12/09 01:27:22;;;;;;;6.60;2.22;;;8.60;58.50;;;;;;5026506;28;20035;-74
2021/12/09 01:29:53;;;;;;;8.13;2.70;;;8.60;58.60;;;;;;5025618;28;20033;-74
2021/12/09 01:32:26;;;;;;;9.80;2.28;;;8.60;58.60;;;;;;5026110;28;20037;-73
2021/12/09 01:34:52;;;;;;;;;;;8.60;58.60;;;;;;5026436;28;20616;-72
2021/12/09 01:37:18;;;;;;;8.23;2.30;;;8.50;58.50;;;;;;5025073;28;19929;-73
2021/12/09 01:39:44;;;;;;;6.97;2.42;;;8.50;58.60;;;;;;5025669;28;20044;-74
2021/12/09 01:42:10;;;;;;;7.93;2.50;;;8.50;58.60;;;;;;5025889;28;20495;-74
2021/12/09 01:44:36;;;;;;;8.57;3.95;;;8.50;58.60;;;;;;5026320;28;20091;-74
2021/12/09 01:47:03;;;;;;;9.95;2.65;;;8.50;58.60;;;;;;5024106;28;20095;-73
2021/12/09 01:49:29;;;;;;;8.77;2.20;;;8.50;58.60;;;;;;5024290;28;20040;-74
2021/12/09 01:51:55;;;;;;;11.48;2.10;;;8.50;58.60;;;;;;5025921;28;20367;-75
2021/12/09 01:54:24;;;;;;;6.40;2.05;;;8.50;58.60;;;;;;5025744;28;20534;-73
2021/12/09 01:56:50;;;;;;;9.10;2.05;;;8.50;58.60;;;;;;5025704;28;20530;-74
2021/12/09 01:59:16;;;;;;;11.73;2.75;;;8.50;58.70;;;;;;5025383;28;20488;-72
2021/12/09 02:01:42;;;;;;;5.95;2.03;;;8.50;58.70;;;;;;5026008;28;20056;-75
2021/12/09 02:04:10;;;;;;;11.80;2.25;;;8.50;58.70;;;;;;5024446;28;20021;-74
2021/12/09 02:06:40;;;;;;;9.15;2.72;;;8.50;58.70;;;;;;5027409;28;20041;-75
2021/12/09 02:09:13;;;;;;;7.90;2.70;;;8.50;58.70;;;;;;5026504;28;20041;-75
2021/12/09 02:11:40;;;;;;;11.70;3.03;;;8.50;58.70;;;;;;5025610;28;20072;-75
2021/12/09 02:14:06;;;;;;;8.07;2.03;;;8.50;58.70;;;;;;5030464;28;20554;-75
2021/12/09 02:16:33;;;;;;;8.95;2.83;;;8.40;58.60;;;;;;5029842;28;20029;-74
2021/12/09 02:19:00;;;;;;;11.77;3.20;;;8.40;58.60;;;;;;5029383;28;20511;-75
2021/12/09 02:21:30;;;;;;;7.50;2.22;;;8.40;58.60;;;;;;5029244;28;20246;-74
2021/12/09 02:24:00;;;;;;;9.80;2.63;;;8.40;58.60;;;;;;5027638;28;20028;-74
2021/12/09 02:26:33;;;;;;;8.75;2.53;;;8.40;58.60;;;;;;5028795;28;20405;-73
2021/12/09 02:29:00;;;;;;;7.72;2.30;;;8.40;58.60;;;;;;5028629;28;20393;-76
2021/12/09 02:31:28;;;;;;;8.68;2.25;;;8.50;58.80;;;;;;5029482;28;20355;-75
2021/12/09 02:33:54;;;;;;;7.63;2.20;;;8.40;58.60;;;;;;5029221;28;20036;-74
2021/12/09 02:36:20;;;;;;;6.85;1.90;;;8.40;58.70;;;;;;5028866;28;20061;-75
2021/12/09 02:38:49;;;;;;;9.55;3.40;;;8.40;58.70;;;;;;5030518;28;20347;-75
2021/12/09 02:41:19;;;;;;;10.52;2.85;;;8.40;58.70;;;;;;5030454;28;20128;-75
2021/12/09 02:43:51;;;;;;;9.32;2.47;;;8.40;58.80;;;;;;5012570;28;20041;-76
2021/12/09 02:46:18;;;;;;;12.50;2.67;;;8.40;58.80;;;;;;5031182;28;20408;-76
2021/12/09 02:48:44;;;;;;;10.48;2.58;;;8.40;58.80;;;;;;5033527;28;20456;-76
2021/12/09 02:51:10;;;;;;;8.68;2.40;;;8.40;58.80;;;;;;5031875;28;20057;-75
2021/12/09 02:53:37;;;;;;;9.30;1.92;;;8.30;58.60;;;;;;5032374;28;20500;-75
2021/12/09 02:56:04;;;;;;;11.00;2.53;;;8.30;58.70;;;;;;5033250;28;20030;-75
2021/12/09 02:58:30;;;;;;;8.32;2.72;;;8.30;59.30;;;;;;5033445;28;20056;-75
2021/12/09 03:01:05;;;;;;;11.82;2.88;;;8.30;58.80;;;;;;5032170;28;20103;-74
2021/12/09 03:03:31;;;;;;;12.70;2.90;;;8.30;58.80;;;;;;5033204;28;20025;-75
2021/12/09 03:05:58;;;;;;;6.78;2.35;;;8.30;58.80;;;;;;5033079;28;20037;-76
2021/12/09 03:08:34;;;;;;;9.48;2.10;;;8.30;58.90;;;;;;5032996;28;20072;-75
2021/12/09 03:11:09;;;;;;;10.57;2.53;;;8.30;58.90;;;;;;5032121;28;20128;-76
2021/12/09 03:13:36;;;;;;;13.07;2.83;;;8.30;58.90;;;;;;5032914;28;20026;-74
2021/12/09 03:16:03;;;;;;;8.18;2.63;;;8.30;58.90;;;;;;5033111;28;20029;-75
2021/12/09 03:18:30;;;;;;;11.10;4.13;;;8.20;58.80;;;;;;5031895;28;20483;-76
2021/12/09 03:20:56;;;;;;;9.70;2.75;;;8.20;58.80;;;;;;5032725;28;20489;-75
2021/12/09 03:23:23;;;;;;;11.95;2.60;;;8.30;59.10;;;;;;5033056;28;20032;-75
2021/12/09 03:25:49;;;;;;;8.13;2.55;;;8.20;58.90;;;;;;5032275;28;20041;-75
2021/12/09 03:28:16;;;;;;;10.45;2.40;;;8.20;58.90;;;;;;5031596;28;20710;-75
2021/12/09 03:30:42;;;;;;;8.35;2.38;;;8.20;59.00;;;;;;5033113;28;20043;-75
2021/12/09 03:33:08;;;;;;;10.27;2.45;;;8.20;59.00;;;;;;5032847;28;20033;-74
2021/12/09 03:35:34;;;;;;;11.30;2.80;;;8.10;58.80;;;;;;5032521;28;20038;-75
2021/12/09 03:38:00;;;;;;;9.38;2.20;;;8.10;58.90;;;;;;5033036;28;20505;-74
2021/12/09 03:40:26;;;;;;;8.50;2.03;;;8.10;58.90;;;;;;5032474;28;20037;-75
2021/12/09 03:42:52;;;;;;;5.93;1.92;;;8.10;59.50;;;;;;5031933;28;20059;-75
2021/12/09 03:45:18;;;;;;;5.18;2.22;;;8.10;58.90;;;;;;5032572;28;20048;-76
2021/12/09 03:47:44;;;;;;;7.30;1.85;;;8.10;59.00;;;;;;5032614;28;20029;-74
2021/12/09 03:50:13;;;;;;;10.75;2.45;;;8.10;59.00;;;;;;5032262;28;20042;-74
2021/12/09 03:52:40;;;;;;;7.80;2.22;;;8.10;59.10;;;;;;5032273;28;20060;-75
2021/12/09 03:55:06;;;;;;;11.95;2.35;;;8.00;58.90;;;;;;5032228;28;20072;-75
2021/12/09 03:57:33;;;;;;;8.85;1.98;;;8.10;59.10;;;;;;5031235;28;20080;-75
2021/12/09 03:59:59;;;;;;;6.43;1.58;;;8.00;59.00;;;;;;5032145;28;20057;-75
2021/12/09 04:02:25;;;;;;;6.57;1.75;;;8.00;59.00;;;;;;5030503;28;20126;-75
2021/12/09 04:04:51;;;;;;;11.10;2.42;;;8.00;59.00;;;;;;5032567;28;20041;-76
2021/12/09 04:07:17;;;;;;;8.13;2.15;;;8.00;59.00;;;;;;5032936;28;20437;-76
2021/12/09 04:09:43;;;;;;;7.07;2.25;;;8.00;59.00;;;;;;5032173;28;20037;-74
2021/12/09 04:12:10;;;;;;;11.55;3.88;;;8.00;59.00;;;;;;5031669;28;20120;-75
2021/12/09 04:14:36;;;;;;;11.07;2.28;;;8.00;59.00;;;;;;5030571;28;20377;-75
2021/12/09 04:17:03;;;;;;;7.43;2.20;;;8.00;59.10;;;;;;5031804;28;20068;-75
2021/12/09 04:19:29;;;;;;;8.48;2.10;;;8.00;59.10;;;;;;5031792;28;20477;-75
2021/12/09 04:21:55;;;;;;;7.00;2.13;;;8.00;59.10;;;;;;5031884;28;20119;-74
2021/12/09 04:24:22;;;;;;;11.05;2.05;;;8.00;59.20;;;;;;5031801;28;20031;-74
2021/12/09 04:26:51;;;;;;;11.05;2.38;;;7.90;59.00;;;;;;5031383;28;20044;-75
2021/12/09 04:29:18;;;;;;;8.40;1.88;;;7.90;59.00;;;;;;5031786;28;20041;-75
2021/12/09 04:31:47;;;;;;;10.38;2.13;;;7.90;59.10;;;;;;5031828;28;20474;-76
2021/12/09 04:34:13;;;;;;;8.77;2.60;;;7.90;59.10;;;;;;5031425;28;20033;-75
2021/12/09 04:36:40;;;;;;;6.22;2.30;;;7.90;59.10;;;;;;5030460;28;20275;-76
2021/12/09 04:39:07;;;;;;;7.95;1.95;;;7.90;59.10;;;;;;5032011;28;20029;-75
2021/12/09 04:41:33;;;;;;;8.73;1.95;;;7.80;59.00;;;;;;5030737;28;20030;-74
2021/12/09 04:43:59;;;;;;;8.80;2.28;;;7.80;59.00;;;;;;5029817;28;20571;-75
2021/12/09 04:46:26;;;;;;;8.77;2.47;;;7.80;59.00;;;;;;5030604;28;20080;-76
2021/12/09 04:48:52;;;;;;;5.18;1.60;;;7.80;59.00;;;;;;5031198;28;20069;-76
2021/12/09 04:51:17;;;;;;;7.95;1.75;;;7.80;59.10;;;;;;5031552;28;20061;-74
2021/12/09 04:53:44;;;;;;;8.40;2.00;;;7.80;59.10;;;;;;5032015;28;20453;-75
2021/12/09 04:56:10;;;;;;;9.48;1.90;;;7.80;59.10;;;;;;5031197;28;20303;-75
2021/12/09 04:58:36;;;;;;;10.98;2.33;;;7.80;59.20;;;;;;5031171;28;20040;-75
2021/12/09 05:01:06;;;;;;;9.80;1.73;;;7.80;59.20;;;;;;5029436;28;20056;-74
2021/12/09 05:03:32;;;;;;;12.48;2.50;;;7.80;59.20;;;;;;5029695;28;20033;-75
2021/12/09 05:05:58;;;;;;;6.47;1.77;;;7.70;59.00;;;;;;5031324;28;20036;-75
2021/12/09 05:08:27;;;;;;;11.80;2.33;;;7.70;59.00;;;;;;5031049;28;20025;-75
2021/12/09 05:13:27;;;;;;;11.35;2.28;;;7.70;59.20;;;;;;5030375;28;20032;-76
2021/12/09 05:15:55;;;;;;;12.00;2.72;;;7.70;59.20;;;;;;5029975;28;20036;-75
2021/12/09 05:18:22;;;;;;;10.02;2.20;;;7.70;59.20;;;;;;5030845;28;20104;-76
2021/12/09 05:20:48;;;;;;;8.55;2.10;;;7.70;59.20;;;;;;5029894;28;20036;-75
2021/12/09 05:23:16;;;;;;;10.60;2.88;;;7.70;59.30;;;;;;5029684;28;20026;-75
2021/12/09 05:25:42;;;;;;;7.90;2.03;;;7.70;59.30;;;;;;5032915;28;20044;-74
2021/12/09 05:28:11;;;;;;;7.28;1.70;;;7.70;59.30;;;;;;5014735;28;20064;-73
2021/12/09 05:32:07;;;;;;;7.53;2.05;;;7.70;59.30;;;;;;5027100;28;20049;-75
2021/12/09 05:33:27;;;;;;;12.45;2.40;;;7.70;59.40;;;;;;5013920;28;20026;-75
2021/12/09 05:35:54;;;;;;;9.18;1.88;;;7.60;59.20;;;;;;5031679;28;20057;-75
2021/12/09 05:38:21;;;;;;;7.97;1.95;;;7.60;59.20;;;;;;5031143;28;20056;-75
2021/12/09 05:40:48;;;;;;;10.60;2.28;;;7.60;59.30;;;;;;5030700;28;20029;-73
2021/12/09 05:43:15;;;;;;;10.32;2.75;;;7.60;59.30;;;;;;5018786;28;20058;-75
2021/12/09 05:45:43;;;;;;;7.05;2.13;;;7.60;59.40;;;;;;5011004;28;20038;-75
2021/12/09 05:48:12;;;;;;;10.43;1.73;;;7.60;59.40;;;;;;5025113;28;20025;-75
2021/12/09 05:50:39;;;;;;;6.35;1.80;;;7.60;59.40;;;;;;5011841;28;20038;-75
2021/12/09 05:53:06;;;;;;;7.82;1.98;;;7.60;59.40;;;;;;5011799;28;20053;-74
2021/12/09 05:55:33;;;;;;;7.18;1.80;;;7.60;59.40;;;;;;5011484;28;20470;-75
2021/12/09 05:57:59;;;;;;;9.10;2.20;;;7.60;59.50;;;;;;5016143;28;20035;-75
2021/12/09 06:00:25;;;;;;;8.60;1.67;;;7.60;59.50;;;;;;5031581;28;20033;-74
2021/12/09 06:02:51;;;;;;;6.78;1.90;;;7.60;59.50;;;;;;5024849;28;20038;-76
2021/12/09 06:05:18;;;;;;;13.15;2.65;;;7.60;60.10;;;;;;5008643;28;20041;-75
2021/12/09 06:07:45;;;;;;;6.65;1.92;;;7.60;59.60;;;;;;5012633;28;20033;-77
2021/12/09 06:10:11;;;;;;;7.25;2.08;;;7.50;59.40;;;;;;5028663;28;20025;-76
2021/12/09 06:12:37;;;;;;;5.38;1.48;;;7.50;59.40;;;;;;5029175;28;20469;-76
2021/12/09 06:15:05;;;;;;;11.43;2.15;;;7.50;59.50;;;;;;5029383;28;20041;-74
2021/12/09 06:17:31;;;;;;;6.47;1.88;;;7.50;59.50;;;;;;5030305;28;20029;-75
2021/12/09 06:19:57;;;;;;;8.68;2.30;;;7.50;59.60;;;;;;5029135;28;20068;-74
2021/12/09 06:22:23;;;;;;;8.90;2.45;;;7.50;59.60;;;;;;5029649;28;20037;-73
2021/12/09 06:24:49;;;;;;;7.20;1.92;;;7.40;59.50;;;;;;5029047;28;20033;-76
2021/12/09 06:27:15;;;;;;;7.43;1.92;;;7.40;59.50;;;;;;5029613;28;20041;-75
2021/12/09 06:29:41;;;;;;;11.27;1.85;;;7.40;59.60;;;;;;5028552;28;20037;-76
2021/12/09 06:32:08;;;;;;;8.80;2.53;;;7.40;59.60;;;;;;5028905;28;20561;-74
2021/12/09 06:34:34;;;;;;;9.43;1.80;;;7.40;59.60;;;;;;5028930;28;20037;-73
2021/12/09 06:37:00;;;;;;;7.95;1.60;;;7.40;59.70;;;;;;5028489;28;20037;-73
2021/12/09 06:39:27;;;;;;;12.18;3.20;;;7.40;59.80;;;;;;5029608;28;20112;-74
2021/12/09 06:41:53;;;;;;;5.95;1.60;;;7.50;60.40;;;;;;5026977;28;20029;-75
2021/12/09 06:44:19;;;;;;;8.45;2.17;;;7.50;60.40;;;;;;5027866;28;20191;-74
2021/12/09 06:46:45;;;;;;;10.05;2.05;;;7.50;60.40;;;;;;5028913;28;20128;-74
2021/12/09 06:49:11;;;;;;;10.60;2.30;;;7.60;60.50;;;;;;5028580;28;20030;-73
2021/12/09 06:51:37;;;;;;;9.40;2.35;;;7.60;60.60;;;;;;5028827;28;20196;-75
2021/12/09 06:54:03;;;;;;;11.50;3.78;;;7.60;60.70;;;;;;5026879;28;20033;-73
2021/12/09 06:56:32;;;;;;;14.15;2.33;;;7.70;61.70;;;;;;5027304;28;20025;-72
2021/12/09 06:58:59;;;;;;;7.35;2.65;;;7.90;62.80;;;;;;5027187;28;20036;-72
2021/12/09 07:01:26;;;;;;;8.20;2.40;;;8.30;63.60;;;;;;5013665;28;20049;-73
2021/12/09 07:03:53;;;;;;;15.18;3.25;;;8.40;63.50;;;;;;5025127;28;20374;-74
2021/12/09 07:06:20;;;;;;;6.88;2.22;;;8.50;63.60;;;;;;5014340;28;20049;-74
2021/12/09 07:08:48;;;;;;;6.93;1.95;;;8.60;63.80;;;;;;5019562;28;20038;-74
2021/12/09 07:11:17;;;;;;;8.90;3.92;;;8.60;63.80;;;;;;5026286;28;20033;-73
2021/12/09 07:13:44;;;;;;;11.18;4.38;;;8.70;64.20;;;;;;5028258;28;20061;-73
2021/12/09 07:16:10;;;;;;;11.43;2.72;;;8.60;64.10;;;;;;5027446;28;20025;-73
2021/12/09 07:18:37;;;;;;;10.02;2.47;;;8.50;64.10;;;;;;5028005;28;20246;-74
2021/12/09 07:21:03;;;;;;;9.93;3.00;;;8.50;64.30;;;;;;5027784;28;20022;-73
2021/12/09 07:23:29;;;;;;;8.90;2.53;;;8.40;64.40;;;;;;5028075;28;20061;-73
2021/12/09 07:25:55;;;;;;;9.65;2.90;;;8.30;64.30;;;;;;5028145;28;20081;-73
2021/12/09 07:28:22;;;;;;;13.25;2.80;;;8.30;64.50;;;;;;5026832;28;20033;-74
2021/12/09 07:30:48;;;;;;;8.38;2.70;;;8.30;64.70;;;;;;5026107;28;20075;-73
2021/12/09 07:33:14;;;;;;;8.05;2.35;;;8.20;64.60;;;;;;5012825;28;20030;-73
2021/12/09 07:35:40;;;;;;;8.63;2.85;;;8.20;65.30;;;;;;5024936;28;20033;-74
2021/12/09 07:38:07;;;;;;;7.25;2.97;;;8.10;64.70;;;;;;5027390;28;20511;-73
2021/12/09 07:40:33;;;;;;;10.10;3.15;;;8.10;64.80;;;;;;5026182;28;20041;-73
2021/12/09 07:42:59;;;;;;;10.48;3.03;;;8.10;64.90;;;;;;5027992;28;20037;-74
2021/12/09 07:45:26;;;;;;;7.40;2.40;;;8.10;64.90;;;;;;5009265;28;20485;-73
2021/12/09 07:47:52;;;;;;;8.90;3.20;;;8.10;65.00;;;;;;5027316;28;20032;-73
2021/12/09 07:50:21;;;;;;;8.05;3.40;;;8.10;65.00;;;;;;5027550;28;20053;-73
2021/12/09 07:52:50;;;;;;;8.45;3.10;;;8.00;65.40;;;;;;5027210;28;20551;-74
2021/12/09 07:55:17;;;;;;;8.15;2.53;;;8.00;65.00;;;;;;5025854;28;20029;-73
2021/12/09 07:57:44;;;;;;;13.50;3.10;;;8.00;65.50;;;;;;5012442;28;20121;-73
2021/12/09 08:00:15;;;;;;;11.30;3.22;;;8.00;65.10;;;;;;5021842;28;20029;-75
2021/12/09 08:02:46;;;;;;;7.93;3.40;;;8.00;65.10;;;;;;5026087;28;20136;-73
2021/12/09 08:05:13;;;;;;;10.73;3.33;;;8.00;65.10;;;;;;5026031;28;20186;-73
2021/12/09 08:07:41;;;;;;;8.60;3.72;;;8.00;65.10;;;;;;5026584;28;20040;-74
2021/12/09 08:10:11;;;;;;;6.18;2.90;;;8.00;65.20;;;;;;5026776;28;20404;-73
2021/12/09 08:12:38;;;;;;;6.10;3.30;;;8.00;65.20;;;;;;5027885;28;20083;-75
2021/12/09 08:15:07;;;;;;;9.68;3.25;;;8.00;65.20;;;;;;5025799;28;20025;-74
2021/12/09 08:20:12;;;;;;;6.90;3.05;;;8.00;65.30;;;;;;5027833;28;20072;-73
2021/12/09 08:22:39;;;;;;;7.63;3.60;;;8.00;65.30;;;;;;5016688;28;20032;-73
2021/12/09 08:25:09;;;;;;;10.18;3.22;;;8.00;65.30;;;;;;5024912;28;20036;-74
2021/12/09 08:27:36;;;;;;;10.43;3.20;;;8.00;65.40;;;;;;5025414;28;20432;-74
2021/12/09 08:30:06;;;;;;;11.02;4.78;;;7.90;65.20;;;;;;5026707;28;20393;-73
2021/12/09 08:32:33;;;;;;;9.15;3.25;;;8.00;65.50;;;;;;5026589;28;20499;-73
2021/12/09 08:34:59;;;;;;;9.45;3.65;;;7.90;65.30;;;;;;5024966;28;20117;-72
2021/12/09 08:37:26;;;;;;;17.08;4.78;;;7.90;65.30;;;;;;5026416;28;20123;-75
2021/12/09 08:39:52;;;;;;;10.32;3.97;;;7.90;65.30;;;;;;5026438;28;20035;-74
2021/12/09 08:42:18;;;;;;;11.02;4.03;;;7.90;65.40;;;;;;5026094;28;20036;-74
2021/12/09 08:44:44;;;;;;;14.05;3.97;;;7.90;65.30;;;;;;5025972;28;20037;-73
2021/12/09 08:47:10;;;;;;;10.45;3.45;;;7.90;65.40;;;;;;5025592;28;20049;-73
2021/12/09 08:49:36;;;;;;;9.07;3.95;;;8.00;65.50;;;;;;5026693;28;20034;-73
2021/12/09 08:52:03;;;;;;;10.45;4.15;;;8.00;65.60;;;;;;5025683;28;20191;-74
2021/12/09 08:54:30;;;;;;;11.38;4.07;;;8.00;65.60;;;;;;5027011;28;20057;-73
2021/12/09 08:56:57;;;;;;;10.98;3.72;;;8.00;65.60;;;;;;5026934;28;20040;-74
2021/12/09 08:59:25;;;;;;;14.32;4.25;;;8.00;65.60;;;;;;5024661;28;20083;-74
2021/12/09 09:01:52;;;;;;;7.40;3.78;;;8.00;65.60;;;;;;5020413;28;20053;-73
2021/12/09 09:04:18;;;;;;;11.13;3.90;;;8.00;65.60;;;;;;5019855;28;20065;-73
2021/12/09 09:06:56;;;;;;;10.25;3.60;;;8.10;65.80;;;;;;5026592;28;20195;-73
2021/12/09 09:09:25;;;;;;;8.85;3.30;;;8.10;65.80;;;;;;5025763;28;20037;-74
2021/12/09 09:11:51;;;;;;;10.10;4.40;;;8.10;65.70;;;;;;5024517;28;20038;-74
2021/12/09 09:14:17;;;;;;;8.65;3.85;;;8.20;65.90;;;;;;5023721;28;20204;-73
2021/12/09 09:16:43;;;;;;;11.18;4.10;;;8.20;65.80;;;;;;5017194;28;20026;-73
2021/12/09 09:19:10;;;;;;;8.88;3.42;;;8.20;65.80;;;;;;5024884;28;20029;-73
2021/12/09 09:21:36;;;;;;;7.22;3.63;;;8.30;65.90;;;;;;5024918;28;20037;-73
2021/12/09 09:24:03;;;;;;;9.75;4.20;;;8.30;65.80;;;;;;5025608;28;20513;-73
2021/12/09 09:26:31;;;;;;;11.98;4.57;;;8.30;65.80;;;;;;5025998;28;20493;-74
2021/12/09 09:28:58;;;;;;;13.77;3.92;;;8.30;65.70;;;;;;5019919;28;20029;-74
2021/12/09 09:31:28;;;;;;;11.00;3.75;;;8.40;65.80;;;;;;5006074;28;20033;-74
2021/12/09 09:33:54;;;;;;;10.00;3.53;;;8.40;65.80;;;;;;5015981;28;20032;-74
2021/12/09 09:36:21;;;;;;;13.57;4.03;;;8.40;65.80;;;;;;5025614;28;20571;-73
2021/12/09 09:38:47;;;;;;;8.75;3.47;;;8.40;65.90;;;;;;5024028;28;20037;-73
2021/12/09 09:41:17;;;;;;;9.20;3.25;;;8.40;65.90;;;;;;5025919;28;20029;-73
2021/12/09 09:46:22;;;;;;;7.57;3.22;;;8.30;65.90;;;;;;5025467;28;20493;-73
2021/12/09 09:48:51;;;;;;;9.73;4.15;;;8.30;66.00;;;;;;5024062;28;20022;-73
2021/12/09 09:51:19;;;;;;;13.50;4.32;;;8.30;66.00;;;;;;5025395;28;20037;-71
2021/12/09 09:53:45;;;;;;;7.93;3.67;;;8.30;66.10;;;;;;5025876;28;20116;-74
2021/12/09 09:56:16;;;;;;;10.57;3.85;;;8.30;66.10;;;;;;5025772;28;20107;-74
2021/12/09 09:58:51;;;;;;;8.90;3.45;;;8.30;66.10;;;;;;5025877;28;20091;-74
2021/12/09 10:01:18;;;;;;;11.23;4.40;;;8.40;66.30;;;;;;5025488;28;20553;-73
2021/12/09 10:03:47;;;;;;;9.88;3.70;;;8.50;66.40;;;;;;5025597;28;20493;-74
2021/12/09 10:06:15;;;;;;;13.13;3.60;;;8.50;66.30;;;;;;5024485;28;20045;-73
2021/12/09 10:08:42;;;;;;;11.15;4.32;;;8.60;66.40;;;;;;5025767;28;20025;-74
2021/12/09 10:11:09;;;;;;;10.43;3.47;;;8.60;66.30;;;;;;5023907;28;20083;-73
2021/12/09 10:13:38;;;;;;;9.25;4.57;;;8.70;66.40;;;;;;5025156;28;20180;-74
2021/12/09 10:16:15;;;;;;;12.70;4.82;;;8.70;66.30;;;;;;5023517;28;20025;-73
2021/12/09 10:18:44;;;;;;;10.23;4.32;;;8.70;66.30;;;;;;5024416;28;21162;-74
2021/12/09 10:21:18;;;;;;;9.00;3.30;;;8.80;66.40;;;;;;5024232;28;20160;-73
2021/12/09 10:23:50;;;;;;;11.82;4.53;;;8.80;66.40;;;;;;5025640;28;20109;-73
2021/12/09 10:26:27;;;;;;;7.72;3.80;;;8.90;66.50;;;;;;5025309;28;20072;-72
2021/12/09 10:29:15;;;;;;;10.32;3.72;;;8.90;66.40;;;;;;5025419;28;20461;-73
2021/12/09 10:31:54;;;;;;;9.65;3.55;;;8.90;66.40;;;;;;5007546;28;20037;-74
2021/12/09 10:34:41;;;;;;;10.75;4.47;;;9.00;66.50;;;;;;5027374;28;20087;-74
2021/12/09 10:37:16;;;;;;;13.68;4.18;;;9.00;66.50;;;;;;5027635;28;20045;-73
2021/12/09 10:39:44;;;;;;;9.95;3.53;;;9.00;66.40;;;;;;5010816;28;20040;-74
2021/12/09 10:42:13;;;;;;;9.77;3.38;;;9.10;66.60;;;;;;5029145;28;20168;-73
2021/12/09 10:44:46;;;;;;;8.38;2.80;;;9.10;66.60;;;;;;5028045;28;20608;-73
2021/12/09 10:47:22;;;;;;;10.07;3.58;;;9.10;66.60;;;;;;5029542;28;20061;-73
2021/12/09 10:49:54;;;;;;;10.43;3.55;;;9.10;66.50;;;;;;5011442;28;20048;-72
2021/12/09 10:52:37;;;;;;;12.75;3.47;;;9.20;66.70;;;;;;5029111;28;20105;-74
2021/12/09 10:55:09;;;;;;;9.60;3.13;;;9.20;66.60;;;;;;5028399;28;20021;-73
2021/12/09 10:57:35;;;;;;;10.18;4.00;;;9.40;66.90;;;;;;5028734;28;20065;-73
2021/12/09 11:00:14;;;;;;;9.23;3.40;;;9.40;66.70;;;;;;5024645;28;20032;-75
2021/12/09 11:02:57;;;;;;;10.63;3.35;;;9.50;66.70;;;;;;5028544;28;20191;-72
2021/12/09 11:05:23;;;;;;;8.25;3.13;;;9.60;66.70;;;;;;5008602;28;20069;-73
2021/12/09 11:07:49;;;;;;;11.13;4.07;;;9.60;66.60;;;;;;5010670;28;20393;-73
2021/12/09 11:10:15;;;;;;;10.60;3.10;;;9.70;66.70;;;;;;5027506;28;20033;-73
2021/12/09 11:12:49;;;;;;;9.07;3.05;;;9.70;66.60;;;;;;5027323;28;20140;-73
2021/12/09 11:15:17;;;;;;;7.65;3.13;;;9.70;66.50;;;;;;5026848;28;20064;-73
2021/12/09 11:17:46;;;;;;;9.20;4.00;;;9.80;66.60;;;;;;5026724;28;20033;-74
2021/12/09 11:20:12;;;;;;;10.52;3.25;;;9.80;66.50;;;;;;5027083;28;20029;-73
2021/12/09 11:22:39;;;;;;;9.15;3.55;;;9.90;66.60;;;;;;5027175;28;20034;-73
2021/12/09 11:25:38;;;;;;;11.43;4.28;;;9.90;66.60;;;;;;5027907;28;20488;-73
2021/12/09 11:28:09;;;;;;;8.27;3.30;;;10.00;66.60;;;;;;5017838;28;20030;-73
2021/12/09 11:31:15;;;;;;;6.85;2.85;;;10.10;66.70;;;;;;5019646;28;20033;-73
2021/12/09 11:33:44;;;;;;;6.65;2.75;;;10.10;66.60;;;;;;5026265;28;20041;-73
2021/12/09 11:36:17;;;;;;;11.80;3.50;;;10.20;66.60;;;;;;5027725;28;20099;-74
2021/12/09 11:39:12;;;;;;;7.78;3.05;;;10.30;66.60;;;;;;5026574;28;20377;-73
2021/12/09 11:41:40;;;;;;;11.23;2.90;;;10.40;66.60;;;;;;5026144;28;20532;-74
2021/12/09 11:44:09;;;;;;;8.13;2.80;;;10.50;66.60;;;;;;5027282;28;20477;-72
2021/12/09 11:46:38;;;;;;;10.55;3.00;;;10.60;66.80;;;;;;5025457;28;20128;-74
2021/12/09 11:49:04;;;;;;;8.40;2.83;;;10.70;66.90;;;;;;5027026;28;20041;-74
2021/12/09 11:51:30;;;;;;;9.32;3.38;;;10.80;67.10;;;;;;5027306;28;20033;-73
2021/12/09 11:53:59;;;;;;;8.23;3.15;;;10.90;66.80;;;;;;5027704;28;20120;-74
2021/12/09 12:06:34;;;;;;;10.20;2.53;;;11.10;66.80;;;;;;5027167;28;20060;-73
2021/12/09 12:11:17;;;;;;;9.38;2.75;;;11.40;66.50;;;;;;5029183;28;20034;-73
2021/12/09 12:13:55;;;;;;;9.30;2.50;;;11.50;66.60;;;;;;5029188;28;20040;-74
2021/12/09 12:28:41;;;;;;;7.38;3.28;;;11.70;66.40;;;;;;5019831;28;20037;-75
2021/12/09 12:31:45;;;;;;;8.00;2.67;;;11.70;66.30;;;;;;5011036;28;20492;-74
2021/12/09 12:42:17;;;;;;;8.15;1.92;;;11.90;66.20;;;;;;5020599;28;20106;-75
2021/12/09 12:45:08;;;;;;;9.07;2.72;;;12.00;66.20;;;;;;5021550;28;20442;-74
2021/12/09 12:47:41;;;;;;;6.95;2.28;;;12.10;66.20;;;;;;5025987;28;20044;-74
2021/12/09 12:50:10;;;;;;;7.32;2.15;;;12.10;66.10;;;;;;5005780;28;20438;-73
2021/12/09 12:52:38;;;;;;;8.10;3.10;;;12.10;66.10;;;;;;5006817;28;20409;-73
2021/12/09 12:55:24;;;;;;;9.75;2.33;;;12.20;66.20;;;;;;5024723;28;20037;-74
2021/12/09 12:57:53;;;;;;;10.85;2.78;;;12.20;66.00;;;;;;5025866;28;20056;-74
2021/12/09 13:00:35;;;;;;;6.70;2.30;;;12.20;66.00;;;;;;5026599;28;20029;-75
2021/12/09 13:03:16;;;;;;;9.38;3.05;;;12.20;65.90;;;;;;5026089;28;20033;-75
2021/12/09 13:06:09;;;;;;;12.98;2.97;;;12.20;66.00;;;;;;5026391;28;20083;-72
2021/12/09 13:11:49;;;;;;;8.13;1.92;;;12.20;65.90;;;;;;5025043;28;20096;-75
2021/12/09 13:14:25;;;;;;;8.40;2.58;;;12.20;65.80;;;;;;5025335;28;20033;-72
2021/12/09 13:17:13;;;;;;;5.07;2.05;;;12.30;66.10;;;;;;5025920;28;20025;-73
2021/12/09 13:19:57;;;;;;;8.00;2.10;;;12.30;65.90;;;;;;5026223;28;20442;-73
2021/12/09 13:22:35;;;;;;;4.43;2.28;;;12.30;65.90;;;;;;5024380;28;20108;-75
2021/12/09 13:25:34;;;;;;;5.40;1.83;;;12.20;65.70;;;;;;5024872;28;20153;-75
2021/12/09 13:28:02;;;;;;;5.85;2.15;;;12.20;65.80;;;;;;5025292;28;20049;-75
2021/12/09 13:30:58;;;;;;;8.52;2.22;;;12.20;65.90;;;;;;5026307;28;20120;-75
2021/12/09 13:47:44;;;;;;;5.15;1.75;;;12.00;65.90;;;;;;5025870;28;20448;-74
2021/12/09 13:50:43;;;;;;;8.52;1.60;;;11.90;65.80;;;;;;5025581;28;20056;-75
2021/12/09 13:55:35;;;;;;;10.10;2.35;;;11.90;66.10;;;;;;5024952;28;20489;-72
2021/12/09 13:58:10;;;;;;;6.88;1.83;;;11.90;66.20;;;;;;5025388;28;20025;-76
2021/12/09 14:00:42;;;;;;;5.68;1.92;;;11.90;66.20;;;;;;5025398;28;20809;-75
2021/12/09 14:03:12;;;;;;;5.57;1.90;;;11.90;66.20;;;;;;5025475;28;20045;-74